WetterOnline ( https://www.wetteronline.ch )

Wetter aktuell Boizenburg

Aktuelles Wetter: Boizenburg (46m)

6-stündlich | Neueste Meldungen
Ortszeit Temperatur Wetter
So, 12.07. 2:00 10.4° C fast wolkenlos
Sa, 11.07. 20:00 17.8° C leicht bewölkt
Sa, 11.07. 14:00 14.7° C bedeckt
Sa, 11.07. 8:00 11.1° C leicht bewölkt
Sa, 11.07. 2:00 10.0° C leicht bewölkt
Fr, 10.07. 20:00 14.2° C bewölkt
Fr, 10.07. 14:00 14.4° C bedeckt
Fr, 10.07. 8:00 13.1° C Sprühregen
Ortszeit Temperatur Wetter
So, 12.07. 4:00 9.7° C leicht bewölkt
So, 12.07. 3:50 9.7° C leicht bewölkt
So, 12.07. 3:40 9.8° C leicht bewölkt
So, 12.07. 3:30 9.8° C leicht bewölkt
So, 12.07. 3:20 9.8° C leicht bewölkt
So, 12.07. 3:10 9.7° C leicht bewölkt
So, 12.07. 3:00 9.7° C wolkenlos
So, 12.07. 2:30 10.3° C wolkenlos
So, 12.07. 2:00 10.4° C fast wolkenlos
So, 12.07. 1:30 10.9° C wolkenlos
So, 12.07. 1:00 10.4° C wolkenlos
So, 12.07. 0:30 10.5° C wolkenlos
Ortszeit Relative Feuchte Sichtweite
So, 12.07. 2:00 91% 60 km
Sa, 11.07. 20:00 52% 65 km
Sa, 11.07. 14:00 75% >70 km
Sa, 11.07. 8:00 88% 55 km
Sa, 11.07. 2:00 92% 55 km
Fr, 10.07. 20:00 80% 55 km
Fr, 10.07. 14:00 93% >70 km
Fr, 10.07. 8:00 100% 0.8 km
Ortszeit Relative Feuchte Sichtweite
So, 12.07. 4:00 96% 35 km
So, 12.07. 3:50 96% -
So, 12.07. 3:40 95% -
So, 12.07. 3:30 96% 45 km
So, 12.07. 3:20 96% -
So, 12.07. 3:10 95% -
So, 12.07. 3:00 94% 45 km
So, 12.07. 2:30 92% 55 km
So, 12.07. 2:00 91% 60 km
So, 12.07. 1:30 88% 60 km
So, 12.07. 1:00 88% >70 km
So, 12.07. 0:30 86% >70 km
Ortszeit Niederschlagsmenge Niederschlagsart
So, 12.07. 2:00 0.0 l/m2 in 6 Std. -
Sa, 11.07. 20:00 0.8 l/m2 in 12 Std. Regen
Sa, 11.07. 14:00 0.6 l/m2 in 6 Std. Regen
Sa, 11.07. 8:00 0.0 l/m2 in 12 Std. -
Sa, 11.07. 2:00 0.0 l/m2 in 6 Std. -
Fr, 10.07. 20:00 6 l/m2 in 12 Std. Regen
Fr, 10.07. 14:00 5 l/m2 in 6 Std. Regen
Fr, 10.07. 8:00 6 l/m2 in 12 Std. Regen
Ortszeit Niederschlagsmenge Niederschlagsart
So, 12.07. 4:00 0.0 l/m2 in 1 Std. -
So, 12.07. 3:50 keine Meldung -
So, 12.07. 3:40 keine Meldung -
So, 12.07. 3:30 0.0 l/m2 in 1 Std. -
So, 12.07. 3:20 keine Meldung -
So, 12.07. 3:10 keine Meldung -
So, 12.07. 3:00 0.0 l/m2 in 1 Std. -
So, 12.07. 2:30 0.0 l/m2 in 1 Std. -
So, 12.07. 2:00 0.0 l/m2 in 1 Std. -
So, 12.07. 1:30 0.0 l/m2 in 1 Std. -
So, 12.07. 1:00 0.0 l/m2 in 1 Std. -
So, 12.07. 0:30 0.0 l/m2 in 1 Std. -
Ortszeit Stärke Spitze Richtung
km/h Bft. km/h Grad Sektor
So, 12.07. 2:00 7 2 18 250° W
Sa, 11.07. 20:00 11 2 36 280° W
Sa, 11.07. 14:00 7 2 40 280° W
Sa, 11.07. 8:00 17 3 26 240° SW
Sa, 11.07. 2:00 11 2 22 230° SW
Fr, 10.07. 20:00 9 2 30 250° W
Fr, 10.07. 14:00 11 2 36 320° NW
Fr, 10.07. 8:00 11 2 24 100° O
Ortszeit Stärke Spitze Richtung
km/h Bft. km/h Grad Sektor
So, 12.07. 4:00 9 2 13 250° W
So, 12.07. 3:50 9 2 - 250° W
So, 12.07. 3:40 7 2 - 250° W
So, 12.07. 3:30 7 2 11 240° SW
So, 12.07. 3:20 7 2 - 240° SW
So, 12.07. 3:10 7 2 - 250° W
So, 12.07. 3:00 7 2 11 240° SW
So, 12.07. 2:30 7 2 11 260° W
So, 12.07. 2:00 7 2 14 250° W
So, 12.07. 1:30 7 2 14 250° W
So, 12.07. 1:00 7 2 11 240° SW
So, 12.07. 0:30 7 2 11 250° W
Ortszeit Untergrenze Bedeckung Gattung
total tief tief mittel hoch
So, 12.07. 2:00 9000 m 1/8 0/8 - - -
Sa, 11.07. 20:00 1290 m 4/8 3/8 - - -
Sa, 11.07. 14:00 1500 m 8/8 8/8 - - -
Sa, 11.07. 8:00 1800 m 3/8 3/8 - - -
Sa, 11.07. 2:00 900 m 2/8 2/8 - - -
Fr, 10.07. 20:00 1440 m 7/8 7/8 - - -
Fr, 10.07. 14:00 240 m 8/8 8/8 - - -
Fr, 10.07. 8:00 30 m 8/8 8/8 - - -
Ortszeit Bedeckungsgrad in Achtel und Wolkenuntergrenze
So, 12.07. 4:00 2(810m)
So, 12.07. 3:50 2(810m)
So, 12.07. 3:40 4(810m)
So, 12.07. 3:30 4(810m)
So, 12.07. 3:20 4(810m)
So, 12.07. 3:10 2(810m)
So, 12.07. 3:00 keine Wolken
So, 12.07. 2:30 keine Wolken
So, 12.07. 2:00 1(9000m)
So, 12.07. 1:30 keine Wolken
So, 12.07. 1:00 keine Wolken
So, 12.07. 0:30 keine Wolken
Ortszeit Luftdruck NN (hPa) Tendenz (hPa in 3 Std.)
So, 12.07. 2:00 1026 + 0,3
Sa, 11.07. 20:00 1024 + 0,3
Sa, 11.07. 14:00 1023 + 1,3
Sa, 11.07. 8:00 1021 + 1,3
Sa, 11.07. 2:00 1018 + 2,0
Fr, 10.07. 20:00 1014 + 2,2
Fr, 10.07. 14:00 1007 + 2,1
Fr, 10.07. 8:00 1007 - 1,8
Ortszeit Luftdruck NN (hPa) Tendenz (hPa in 3 Std.)
So, 12.07. 4:00 1026 + 0,2
So, 12.07. 3:50 1026 keine Meldung
So, 12.07. 3:40 1026 keine Meldung
So, 12.07. 3:30 1026 + 0,2
So, 12.07. 3:20 1026 keine Meldung
So, 12.07. 3:10 1026 keine Meldung
So, 12.07. 3:00 1026 + 0,2
So, 12.07. 2:30 1026 + 0,5
So, 12.07. 2:00 1026 + 0,3
So, 12.07. 1:30 1026 + 0,4
So, 12.07. 1:00 1026 + 0,7
So, 12.07. 0:30 1026 + 0,9
Ortszeit Schneehöhe (cm)
So, 12.07. 2:00 -
Sa, 11.07. 20:00 -
Sa, 11.07. 14:00 -
Sa, 11.07. 8:00 -
Sa, 11.07. 2:00 -
Fr, 10.07. 20:00 -
Fr, 10.07. 14:00 -
Fr, 10.07. 8:00 -
Ortszeit Schneehöhe (cm)
So, 12.07. 4:00 -
So, 12.07. 3:50 -
So, 12.07. 3:40 -
So, 12.07. 3:30 -
So, 12.07. 3:20 -
So, 12.07. 3:10 -
So, 12.07. 3:00 -
So, 12.07. 2:30 -
So, 12.07. 2:00 -
So, 12.07. 1:30 -
So, 12.07. 1:00 -
So, 12.07. 0:30 -
Link zu dieser Seite / Seite empfehlen

Das Wetter in ...